sensor_id;sensor_type;location;lat;lon;timestamp;temperature;humidity
15013;DHT22;7603;49.432;11.418;2023-04-29T00:00:30;11.70;99.90
15013;DHT22;7603;49.432;11.418;2023-04-29T00:02:56;11.60;99.90
15013;DHT22;7603;49.432;11.418;2023-04-29T00:05:21;11.60;99.90
15013;DHT22;7603;49.432;11.418;2023-04-29T00:07:47;11.60;99.90
15013;DHT22;7603;49.432;11.418;2023-04-29T00:10:12;11.60;99.90
15013;DHT22;7603;49.432;11.418;2023-04-29T00:12:39;11.60;99.90
15013;DHT22;7603;49.432;11.418;2023-04-29T00:15:06;11.60;99.90
15013;DHT22;7603;49.432;11.418;2023-04-29T00:17:33;11.60;99.90
15013;DHT22;7603;49.432;11.418;2023-04-29T00:19:58;11.60;99.90
15013;DHT22;7603;49.432;11.418;2023-04-29T00:22:24;11.70;99.90
15013;DHT22;7603;49.432;11.418;2023-04-29T00:24:50;11.70;99.90
15013;DHT22;7603;49.432;11.418;2023-04-29T00:27:15;11.70;99.90
15013;DHT22;7603;49.432;11.418;2023-04-29T00:29:42;11.70;99.90
15013;DHT22;7603;49.432;11.418;2023-04-29T00:32:08;11.80;99.90
15013;DHT22;7603;49.432;11.418;2023-04-29T00:34:33;11.80;99.90
15013;DHT22;7603;49.432;11.418;2023-04-29T00:36:59;11.80;99.90
15013;DHT22;7603;49.432;11.418;2023-04-29T00:39:24;11.80;99.90
15013;DHT22;7603;49.432;11.418;2023-04-29T00:41:51;11.80;99.90
15013;DHT22;7603;49.432;11.418;2023-04-29T00:44:16;11.90;99.90
15013;DHT22;7603;49.432;11.418;2023-04-29T00:46:42;11.90;99.90
15013;DHT22;7603;49.432;11.418;2023-04-29T00:49:08;11.90;99.90
15013;DHT22;7603;49.432;11.418;2023-04-29T00:51:36;11.90;99.90
15013;DHT22;7603;49.432;11.418;2023-04-29T00:54:03;12.00;99.90
15013;DHT22;7603;49.432;11.418;2023-04-29T00:56:30;12.00;99.90
15013;DHT22;7603;49.432;11.418;2023-04-29T00:58:57;12.00;99.90
15013;DHT22;7603;49.432;11.418;2023-04-29T01:01:24;12.10;99.90
15013;DHT22;7603;49.432;11.418;2023-04-29T01:03:50;12.10;99.90
15013;DHT22;7603;49.432;11.418;2023-04-29T01:09:22;12.20;99.90
15013;DHT22;7603;49.432;11.418;2023-04-29T01:12:10;12.30;99.90
15013;DHT22;7603;49.432;11.418;2023-04-29T01:14:42;12.30;99.90
15013;DHT22;7603;49.432;11.418;2023-04-29T01:17:17;12.30;99.90
15013;DHT22;7603;49.432;11.418;2023-04-29T01:19:47;12.30;99.90
15013;DHT22;7603;49.432;11.418;2023-04-29T01:22:14;12.30;99.90
15013;DHT22;7603;49.432;11.418;2023-04-29T01:24:42;12.30;99.90
15013;DHT22;7603;49.432;11.418;2023-04-29T01:27:36;12.30;99.90
15013;DHT22;7603;49.432;11.418;2023-04-29T01:30:29;12.30;99.90
15013;DHT22;7603;49.432;11.418;2023-04-29T01:38:38;12.30;99.90
15013;DHT22;7603;49.432;11.418;2023-04-29T01:41:16;12.30;99.90
15013;DHT22;7603;49.432;11.418;2023-04-29T01:43:46;12.20;99.90
15013;DHT22;7603;49.432;11.418;2023-04-29T01:46:15;12.30;99.90
15013;DHT22;7603;49.432;11.418;2023-04-29T01:48:43;12.30;99.90
15013;DHT22;7603;49.432;11.418;2023-04-29T01:51:08;12.20;99.90
15013;DHT22;7603;49.432;11.418;2023-04-29T01:53:35;12.20;99.90
15013;DHT22;7603;49.432;11.418;2023-04-29T01:56:01;12.20;99.90
15013;DHT22;7603;49.432;11.418;2023-04-29T01:58:27;12.20;99.90
15013;DHT22;7603;49.432;11.418;2023-04-29T02:00:54;12.20;99.90
15013;DHT22;7603;49.432;11.418;2023-04-29T02:03:20;12.30;99.90
15013;DHT22;7603;49.432;11.418;2023-04-29T02:05:45;12.20;99.90
15013;DHT22;7603;49.432;11.418;2023-04-29T02:08:11;12.20;99.90
15013;DHT22;7603;49.432;11.418;2023-04-29T02:10:37;12.30;99.90
15013;DHT22;7603;49.432;11.418;2023-04-29T02:13:02;12.30;99.90
15013;DHT22;7603;49.432;11.418;2023-04-29T02:15:28;12.30;99.90
15013;DHT22;7603;49.432;11.418;2023-04-29T02:17:54;12.30;99.90
15013;DHT22;7603;49.432;11.418;2023-04-29T02:20:20;12.30;99.90
15013;DHT22;7603;49.432;11.418;2023-04-29T02:22:45;12.30;99.90
15013;DHT22;7603;49.432;11.418;2023-04-29T02:25:11;12.30;99.90
15013;DHT22;7603;49.432;11.418;2023-04-29T02:27:37;12.30;99.90
15013;DHT22;7603;49.432;11.418;2023-04-29T02:30:03;12.30;99.90
15013;DHT22;7603;49.432;11.418;2023-04-29T02:32:29;12.30;99.90
15013;DHT22;7603;49.432;11.418;2023-04-29T02:34:55;12.30;99.90
15013;DHT22;7603;49.432;11.418;2023-04-29T02:37:21;12.20;99.90
15013;DHT22;7603;49.432;11.418;2023-04-29T02:39:47;12.20;99.90
15013;DHT22;7603;49.432;11.418;2023-04-29T02:42:12;12.20;99.90
15013;DHT22;7603;49.432;11.418;2023-04-29T02:44:38;12.20;99.90
15013;DHT22;7603;49.432;11.418;2023-04-29T02:47:04;12.20;99.90
15013;DHT22;7603;49.432;11.418;2023-04-29T02:49:30;12.20;99.90
15013;DHT22;7603;49.432;11.418;2023-04-29T02:51:55;12.20;99.90
15013;DHT22;7603;49.432;11.418;2023-04-29T02:54:22;12.20;99.90
15013;DHT22;7603;49.432;11.418;2023-04-29T02:56:48;12.20;99.90
15013;DHT22;7603;49.432;11.418;2023-04-29T02:59:13;12.20;99.90
15013;DHT22;7603;49.432;11.418;2023-04-29T03:01:39;12.30;99.90
15013;DHT22;7603;49.432;11.418;2023-04-29T03:04:05;12.30;99.90
15013;DHT22;7603;49.432;11.418;2023-04-29T03:06:31;12.30;99.90
15013;DHT22;7603;49.432;11.418;2023-04-29T03:08:57;12.30;99.90
15013;DHT22;7603;49.432;11.418;2023-04-29T03:11:22;12.30;99.90
15013;DHT22;7603;49.432;11.418;2023-04-29T03:13:50;12.30;99.90
15013;DHT22;7603;49.432;11.418;2023-04-29T03:16:16;12.30;99.90
15013;DHT22;7603;49.432;11.418;2023-04-29T03:18:42;12.30;99.90
15013;DHT22;7603;49.432;11.418;2023-04-29T03:21:08;12.30;99.90
15013;DHT22;7603;49.432;11.418;2023-04-29T03:23:34;12.30;99.90
15013;DHT22;7603;49.432;11.418;2023-04-29T03:25:59;12.30;99.90
15013;DHT22;7603;49.432;11.418;2023-04-29T03:28:25;12.30;99.90
15013;DHT22;7603;49.432;11.418;2023-04-29T03:30:51;12.20;99.90
15013;DHT22;7603;49.432;11.418;2023-04-29T03:33:17;12.20;99.90
15013;DHT22;7603;49.432;11.418;2023-04-29T03:35:43;12.10;99.90
15013;DHT22;7603;49.432;11.418;2023-04-29T03:38:09;12.10;99.90
15013;DHT22;7603;49.432;11.418;2023-04-29T03:40:35;12.10;99.90
15013;DHT22;7603;49.432;11.418;2023-04-29T03:43:00;12.00;99.90
15013;DHT22;7603;49.432;11.418;2023-04-29T03:45:26;12.00;99.90
15013;DHT22;7603;49.432;11.418;2023-04-29T03:47:51;12.00;99.90
15013;DHT22;7603;49.432;11.418;2023-04-29T03:50:18;11.90;99.90
15013;DHT22;7603;49.432;11.418;2023-04-29T03:52:44;11.90;99.90
15013;DHT22;7603;49.432;11.418;2023-04-29T03:55:09;11.90;99.90
15013;DHT22;7603;49.432;11.418;2023-04-29T03:57:37;11.80;99.90
15013;DHT22;7603;49.432;11.418;2023-04-29T04:00:03;11.90;99.90
15013;DHT22;7603;49.432;11.418;2023-04-29T04:02:29;11.90;99.90
15013;DHT22;7603;49.432;11.418;2023-04-29T04:04:54;11.90;99.90
15013;DHT22;7603;49.432;11.418;2023-04-29T04:07:20;11.90;99.90
15013;DHT22;7603;49.432;11.418;2023-04-29T04:09:45;11.90;99.90
15013;DHT22;7603;49.432;11.418;2023-04-29T04:12:11;11.80;99.90
15013;DHT22;7603;49.432;11.418;2023-04-29T04:14:37;11.90;99.90
15013;DHT22;7603;49.432;11.418;2023-04-29T04:17:02;11.80;99.90
15013;DHT22;7603;49.432;11.418;2023-04-29T04:19:29;11.90;99.90
15013;DHT22;7603;49.432;11.418;2023-04-29T04:21:55;11.90;99.90
15013;DHT22;7603;49.432;11.418;2023-04-29T04:24:20;12.00;99.90
15013;DHT22;7603;49.432;11.418;2023-04-29T04:26:47;12.00;99.90
15013;DHT22;7603;49.432;11.418;2023-04-29T04:29:12;11.90;99.90
15013;DHT22;7603;49.432;11.418;2023-04-29T04:31:38;11.90;99.90
15013;DHT22;7603;49.432;11.418;2023-04-29T04:34:04;11.90;99.90
15013;DHT22;7603;49.432;11.418;2023-04-29T04:36:29;11.90;99.90
15013;DHT22;7603;49.432;11.418;2023-04-29T04:38:55;11.80;99.90
15013;DHT22;7603;49.432;11.418;2023-04-29T04:41:21;11.80;99.90
15013;DHT22;7603;49.432;11.418;2023-04-29T04:43:46;11.80;99.90
15013;DHT22;7603;49.432;11.418;2023-04-29T04:46:13;11.90;99.90
15013;DHT22;7603;49.432;11.418;2023-04-29T04:48:39;11.90;99.90
15013;DHT22;7603;49.432;11.418;2023-04-29T04:51:09;12.00;99.90
15013;DHT22;7603;49.432;11.418;2023-04-29T04:53:35;12.10;99.90
15013;DHT22;7603;49.432;11.418;2023-04-29T04:56:01;12.10;99.90
15013;DHT22;7603;49.432;11.418;2023-04-29T04:58:27;12.20;99.90
15013;DHT22;7603;49.432;11.418;2023-04-29T05:00:52;12.20;99.90
15013;DHT22;7603;49.432;11.418;2023-04-29T05:03:18;12.30;99.90
15013;DHT22;7603;49.432;11.418;2023-04-29T05:05:43;12.40;99.90
15013;DHT22;7603;49.432;11.418;2023-04-29T05:08:09;12.40;99.90
15013;DHT22;7603;49.432;11.418;2023-04-29T05:10:35;12.40;99.90
15013;DHT22;7603;49.432;11.418;2023-04-29T05:13:01;12.40;99.90
15013;DHT22;7603;49.432;11.418;2023-04-29T05:15:27;12.40;99.90
15013;DHT22;7603;49.432;11.418;2023-04-29T05:17:52;12.40;99.90
15013;DHT22;7603;49.432;11.418;2023-04-29T05:20:18;12.40;99.90
15013;DHT22;7603;49.432;11.418;2023-04-29T05:22:45;12.50;99.90
15013;DHT22;7603;49.432;11.418;2023-04-29T05:25:10;12.60;99.90
15013;DHT22;7603;49.432;11.418;2023-04-29T05:27:36;12.90;99.90
15013;DHT22;7603;49.432;11.418;2023-04-29T05:30:02;13.00;99.90
15013;DHT22;7603;49.432;11.418;2023-04-29T05:32:27;13.20;99.90
15013;DHT22;7603;49.432;11.418;2023-04-29T05:34:53;13.20;99.90
15013;DHT22;7603;49.432;11.418;2023-04-29T05:37:19;13.30;99.90
15013;DHT22;7603;49.432;11.418;2023-04-29T05:39:44;13.40;99.90
15013;DHT22;7603;49.432;11.418;2023-04-29T05:42:10;13.40;99.90
15013;DHT22;7603;49.432;11.418;2023-04-29T05:44:35;13.30;99.90
15013;DHT22;7603;49.432;11.418;2023-04-29T05:47:01;13.40;99.90
15013;DHT22;7603;49.432;11.418;2023-04-29T05:49:27;13.40;99.90
15013;DHT22;7603;49.432;11.418;2023-04-29T05:51:52;13.60;99.90
15013;DHT22;7603;49.432;11.418;2023-04-29T05:54:18;13.80;99.90
15013;DHT22;7603;49.432;11.418;2023-04-29T05:56:43;14.10;99.90
15013;DHT22;7603;49.432;11.418;2023-04-29T05:59:09;14.20;99.90
15013;DHT22;7603;49.432;11.418;2023-04-29T06:01:35;14.60;99.90
15013;DHT22;7603;49.432;11.418;2023-04-29T06:04:00;14.60;99.90
15013;DHT22;7603;49.432;11.418;2023-04-29T06:06:26;14.70;99.90
15013;DHT22;7603;49.432;11.418;2023-04-29T06:08:51;14.80;99.90
15013;DHT22;7603;49.432;11.418;2023-04-29T06:11:17;14.70;99.90
15013;DHT22;7603;49.432;11.418;2023-04-29T06:13:43;14.60;99.90
15013;DHT22;7603;49.432;11.418;2023-04-29T06:16:10;14.50;99.90
15013;DHT22;7603;49.432;11.418;2023-04-29T06:18:35;14.50;99.90
15013;DHT22;7603;49.432;11.418;2023-04-29T06:21:02;14.50;99.90
15013;DHT22;7603;49.432;11.418;2023-04-29T06:23:28;14.40;99.90
15013;DHT22;7603;49.432;11.418;2023-04-29T06:25:53;14.50;99.90
15013;DHT22;7603;49.432;11.418;2023-04-29T06:28:19;14.50;99.90
15013;DHT22;7603;49.432;11.418;2023-04-29T06:30:45;14.60;99.90
15013;DHT22;7603;49.432;11.418;2023-04-29T06:33:10;14.60;99.90
15013;DHT22;7603;49.432;11.418;2023-04-29T06:35:39;14.50;99.90
15013;DHT22;7603;49.432;11.418;2023-04-29T06:38:05;14.70;99.90
15013;DHT22;7603;49.432;11.418;2023-04-29T06:40:33;14.80;99.90
15013;DHT22;7603;49.432;11.418;2023-04-29T06:42:58;14.90;99.90
15013;DHT22;7603;49.432;11.418;2023-04-29T06:45:24;15.10;99.90
15013;DHT22;7603;49.432;11.418;2023-04-29T06:47:50;15.20;99.90
15013;DHT22;7603;49.432;11.418;2023-04-29T06:50:15;15.40;99.90
15013;DHT22;7603;49.432;11.418;2023-04-29T06:52:41;15.50;99.90
15013;DHT22;7603;49.432;11.418;2023-04-29T06:55:07;15.70;99.90
15013;DHT22;7603;49.432;11.418;2023-04-29T06:57:32;15.90;99.90
15013;DHT22;7603;49.432;11.418;2023-04-29T06:59:58;16.00;99.90
15013;DHT22;7603;49.432;11.418;2023-04-29T07:02:24;15.90;99.90
15013;DHT22;7603;49.432;11.418;2023-04-29T07:04:49;15.80;99.90
15013;DHT22;7603;49.432;11.418;2023-04-29T07:07:16;15.70;99.90
15013;DHT22;7603;49.432;11.418;2023-04-29T07:09:42;15.60;99.90
15013;DHT22;7603;49.432;11.418;2023-04-29T07:12:07;15.70;99.90
15013;DHT22;7603;49.432;11.418;2023-04-29T07:14:33;15.60;99.90
15013;DHT22;7603;49.432;11.418;2023-04-29T07:16:59;15.30;99.90
15013;DHT22;7603;49.432;11.418;2023-04-29T07:19:25;15.20;99.90
15013;DHT22;7603;49.432;11.418;2023-04-29T07:21:51;15.10;99.90
15013;DHT22;7603;49.432;11.418;2023-04-29T07:24:17;14.80;99.90
15013;DHT22;7603;49.432;11.418;2023-04-29T07:26:43;14.60;99.90
15013;DHT22;7603;49.432;11.418;2023-04-29T07:29:09;14.50;99.90
15013;DHT22;7603;49.432;11.418;2023-04-29T07:31:35;14.50;99.90
15013;DHT22;7603;49.432;11.418;2023-04-29T07:34:00;14.30;99.90
15013;DHT22;7603;49.432;11.418;2023-04-29T07:36:26;14.20;99.90
15013;DHT22;7603;49.432;11.418;2023-04-29T07:38:53;14.20;99.90
15013;DHT22;7603;49.432;11.418;2023-04-29T07:41:19;14.30;99.90
15013;DHT22;7603;49.432;11.418;2023-04-29T07:43:45;14.40;99.90
15013;DHT22;7603;49.432;11.418;2023-04-29T07:46:10;14.60;99.90
15013;DHT22;7603;49.432;11.418;2023-04-29T07:48:37;14.80;99.90
15013;DHT22;7603;49.432;11.418;2023-04-29T07:51:04;14.90;99.90
15013;DHT22;7603;49.432;11.418;2023-04-29T07:53:30;15.00;99.90
15013;DHT22;7603;49.432;11.418;2023-04-29T07:55:55;15.00;99.90
15013;DHT22;7603;49.432;11.418;2023-04-29T07:58:21;15.00;99.90
15013;DHT22;7603;49.432;11.418;2023-04-29T08:00:47;15.10;99.90
15013;DHT22;7603;49.432;11.418;2023-04-29T08:03:12;15.30;99.90
15013;DHT22;7603;49.432;11.418;2023-04-29T08:05:38;15.30;99.90
15013;DHT22;7603;49.432;11.418;2023-04-29T08:08:03;15.20;99.90
15013;DHT22;7603;49.432;11.418;2023-04-29T08:10:30;15.30;99.90
15013;DHT22;7603;49.432;11.418;2023-04-29T08:12:56;15.40;99.90
15013;DHT22;7603;49.432;11.418;2023-04-29T08:15:22;15.50;99.90
15013;DHT22;7603;49.432;11.418;2023-04-29T08:17:47;15.70;99.90
15013;DHT22;7603;49.432;11.418;2023-04-29T08:20:13;15.90;99.90
15013;DHT22;7603;49.432;11.418;2023-04-29T08:22:39;15.80;99.90
15013;DHT22;7603;49.432;11.418;2023-04-29T08:25:05;15.70;99.90
15013;DHT22;7603;49.432;11.418;2023-04-29T08:27:31;15.70;99.90
15013;DHT22;7603;49.432;11.418;2023-04-29T08:29:57;15.60;99.90
15013;DHT22;7603;49.432;11.418;2023-04-29T08:32:22;15.50;99.90
15013;DHT22;7603;49.432;11.418;2023-04-29T08:34:48;15.40;99.90
15013;DHT22;7603;49.432;11.418;2023-04-29T08:37:14;15.40;99.90
15013;DHT22;7603;49.432;11.418;2023-04-29T08:39:40;15.60;99.90
15013;DHT22;7603;49.432;11.418;2023-04-29T08:42:11;15.60;99.90
15013;DHT22;7603;49.432;11.418;2023-04-29T08:44:39;15.60;99.90
15013;DHT22;7603;49.432;11.418;2023-04-29T08:47:05;15.80;99.90
15013;DHT22;7603;49.432;11.418;2023-04-29T08:49:31;16.00;99.90
15013;DHT22;7603;49.432;11.418;2023-04-29T08:51:59;16.20;99.90
15013;DHT22;7603;49.432;11.418;2023-04-29T08:54:25;16.50;99.90
15013;DHT22;7603;49.432;11.418;2023-04-29T08:56:52;16.80;99.90
15013;DHT22;7603;49.432;11.418;2023-04-29T08:59:20;17.10;99.90
15013;DHT22;7603;49.432;11.418;2023-04-29T09:01:47;17.30;99.90
15013;DHT22;7603;49.432;11.418;2023-04-29T09:04:41;17.50;99.90
15013;DHT22;7603;49.432;11.418;2023-04-29T09:07:12;17.60;99.90
15013;DHT22;7603;49.432;11.418;2023-04-29T09:09:41;17.80;99.90
15013;DHT22;7603;49.432;11.418;2023-04-29T09:12:07;17.80;99.90
15013;DHT22;7603;49.432;11.418;2023-04-29T09:14:33;17.70;99.90
15013;DHT22;7603;49.432;11.418;2023-04-29T09:16:59;17.40;99.90
15013;DHT22;7603;49.432;11.418;2023-04-29T09:19:35;17.10;99.90
15013;DHT22;7603;49.432;11.418;2023-04-29T09:22:02;16.70;99.90
15013;DHT22;7603;49.432;11.418;2023-04-29T09:24:30;16.50;99.90
15013;DHT22;7603;49.432;11.418;2023-04-29T09:26:56;16.40;99.90
15013;DHT22;7603;49.432;11.418;2023-04-29T09:29:23;16.30;99.90
15013;DHT22;7603;49.432;11.418;2023-04-29T09:31:50;16.30;99.90
15013;DHT22;7603;49.432;11.418;2023-04-29T09:34:30;16.30;99.90
15013;DHT22;7603;49.432;11.418;2023-04-29T09:36:56;16.40;99.90
15013;DHT22;7603;49.432;11.418;2023-04-29T09:39:23;16.60;99.90
15013;DHT22;7603;49.432;11.418;2023-04-29T09:44:20;17.00;99.90
15013;DHT22;7603;49.432;11.418;2023-04-29T09:46:56;17.20;99.90
15013;DHT22;7603;49.432;11.418;2023-04-29T09:49:23;17.20;99.90
15013;DHT22;7603;49.432;11.418;2023-04-29T09:52:13;17.40;99.90
15013;DHT22;7603;49.432;11.418;2023-04-29T09:54:40;17.60;99.90
15013;DHT22;7603;49.432;11.418;2023-04-29T09:57:08;18.10;99.90
15013;DHT22;7603;49.432;11.418;2023-04-29T09:59:36;18.70;99.90
15013;DHT22;7603;49.432;11.418;2023-04-29T10:02:12;19.00;99.90
15013;DHT22;7603;49.432;11.418;2023-04-29T10:04:40;19.10;99.90
15013;DHT22;7603;49.432;11.418;2023-04-29T10:07:07;19.40;99.90
15013;DHT22;7603;49.432;11.418;2023-04-29T10:09:36;19.70;99.90
15013;DHT22;7603;49.432;11.418;2023-04-29T10:12:05;19.80;99.90
15013;DHT22;7603;49.432;11.418;2023-04-29T10:14:38;19.70;99.90
15013;DHT22;7603;49.432;11.418;2023-04-29T10:17:13;19.50;99.90
15013;DHT22;7603;49.432;11.418;2023-04-29T10:20:04;19.20;99.90
15013;DHT22;7603;49.432;11.418;2023-04-29T10:22:44;18.90;99.90
15013;DHT22;7603;49.432;11.418;2023-04-29T10:25:11;18.70;99.90
15013;DHT22;7603;49.432;11.418;2023-04-29T10:27:43;18.70;99.90
15013;DHT22;7603;49.432;11.418;2023-04-29T10:30:16;18.90;99.90
15013;DHT22;7603;49.432;11.418;2023-04-29T10:32:43;19.20;99.90
15013;DHT22;7603;49.432;11.418;2023-04-29T10:35:11;19.80;99.90
15013;DHT22;7603;49.432;11.418;2023-04-29T10:37:38;20.50;99.90
15013;DHT22;7603;49.432;11.418;2023-04-29T10:42:43;20.60;99.70
15013;DHT22;7603;49.432;11.418;2023-04-29T10:45:23;20.50;99.40
15013;DHT22;7603;49.432;11.418;2023-04-29T10:53:15;20.00;98.10
15013;DHT22;7603;49.432;11.418;2023-04-29T10:55:42;19.60;98.50
15013;DHT22;7603;49.432;11.418;2023-04-29T10:58:45;19.30;98.60
15013;DHT22;7603;49.432;11.418;2023-04-29T11:01:15;18.90;99.00
15013;DHT22;7603;49.432;11.418;2023-04-29T11:06:11;18.50;99.90
15013;DHT22;7603;49.432;11.418;2023-04-29T11:08:37;18.50;99.90
15013;DHT22;7603;49.432;11.418;2023-04-29T11:11:06;18.50;99.90
15013;DHT22;7603;49.432;11.418;2023-04-29T11:13:39;18.50;99.90
15013;DHT22;7603;49.432;11.418;2023-04-29T11:16:11;18.50;99.40
15013;DHT22;7603;49.432;11.418;2023-04-29T11:19:08;18.40;98.90
15013;DHT22;7603;49.432;11.418;2023-04-29T11:21:35;18.30;98.10
15013;DHT22;7603;49.432;11.418;2023-04-29T11:24:02;18.40;98.90
15013;DHT22;7603;49.432;11.418;2023-04-29T11:26:28;18.50;97.80
15013;DHT22;7603;49.432;11.418;2023-04-29T11:28:56;18.50;97.50
15013;DHT22;7603;49.432;11.418;2023-04-29T11:31:26;18.60;96.50
15013;DHT22;7603;49.432;11.418;2023-04-29T11:33:53;18.60;96.50
15013;DHT22;7603;49.432;11.418;2023-04-29T11:36:19;18.70;97.10
15013;DHT22;7603;49.432;11.418;2023-04-29T11:38:45;18.70;96.60
15013;DHT22;7603;49.432;11.418;2023-04-29T11:41:10;18.90;97.40
15013;DHT22;7603;49.432;11.418;2023-04-29T11:43:37;19.10;96.90
15013;DHT22;7603;49.432;11.418;2023-04-29T11:46:14;19.40;97.90
15013;DHT22;7603;49.432;11.418;2023-04-29T11:48:47;19.60;95.50
15013;DHT22;7603;49.432;11.418;2023-04-29T11:51:17;19.90;95.90
15013;DHT22;7603;49.432;11.418;2023-04-29T11:53:43;20.10;94.70
15013;DHT22;7603;49.432;11.418;2023-04-29T11:56:09;20.30;92.20
15013;DHT22;7603;49.432;11.418;2023-04-29T11:58:35;20.40;92.20
15013;DHT22;7603;49.432;11.418;2023-04-29T12:01:04;20.30;90.30
15013;DHT22;7603;49.432;11.418;2023-04-29T12:03:31;20.10;89.50
15013;DHT22;7603;49.432;11.418;2023-04-29T12:05:57;19.70;90.70
15013;DHT22;7603;49.432;11.418;2023-04-29T12:08:25;19.30;91.70
15013;DHT22;7603;49.432;11.418;2023-04-29T12:10:57;19.10;91.50
15013;DHT22;7603;49.432;11.418;2023-04-29T12:13:26;18.80;92.40
15013;DHT22;7603;49.432;11.418;2023-04-29T12:15:52;18.40;92.70
15013;DHT22;7603;49.432;11.418;2023-04-29T12:18:18;18.10;93.40
15013;DHT22;7603;49.432;11.418;2023-04-29T12:20:45;17.80;94.50
15013;DHT22;7603;49.432;11.418;2023-04-29T12:23:17;17.80;95.40
15013;DHT22;7603;49.432;11.418;2023-04-29T12:25:54;17.90;95.30
15013;DHT22;7603;49.432;11.418;2023-04-29T12:28:20;17.80;95.60
15013;DHT22;7603;49.432;11.418;2023-04-29T12:30:47;17.90;96.00
15013;DHT22;7603;49.432;11.418;2023-04-29T12:33:26;18.10;96.00
15013;DHT22;7603;49.432;11.418;2023-04-29T12:35:54;18.30;95.70
15013;DHT22;7603;49.432;11.418;2023-04-29T12:38:25;18.70;94.70
15013;DHT22;7603;49.432;11.418;2023-04-29T12:40:57;19.10;93.40
15013;DHT22;7603;49.432;11.418;2023-04-29T12:43:31;19.10;92.70
15013;DHT22;7603;49.432;11.418;2023-04-29T12:46:01;19.20;92.50
15013;DHT22;7603;49.432;11.418;2023-04-29T12:48:33;19.20;92.20
15013;DHT22;7603;49.432;11.418;2023-04-29T12:51:02;19.10;91.20
15013;DHT22;7603;49.432;11.418;2023-04-29T12:53:31;18.80;91.60
15013;DHT22;7603;49.432;11.418;2023-04-29T12:55:56;18.60;91.20
15013;DHT22;7603;49.432;11.418;2023-04-29T12:58:22;18.50;92.10
15013;DHT22;7603;49.432;11.418;2023-04-29T13:00:48;18.50;92.10
15013;DHT22;7603;49.432;11.418;2023-04-29T13:03:14;18.60;91.10
15013;DHT22;7603;49.432;11.418;2023-04-29T13:05:40;18.50;90.80
15013;DHT22;7603;49.432;11.418;2023-04-29T13:08:06;18.40;91.50
15013;DHT22;7603;49.432;11.418;2023-04-29T13:10:33;18.60;91.50
15013;DHT22;7603;49.432;11.418;2023-04-29T13:12:59;18.80;91.50
15013;DHT22;7603;49.432;11.418;2023-04-29T13:15:25;19.10;91.20
15013;DHT22;7603;49.432;11.418;2023-04-29T13:17:51;19.40;91.40
15013;DHT22;7603;49.432;11.418;2023-04-29T13:20:16;19.50;90.00
15013;DHT22;7603;49.432;11.418;2023-04-29T13:22:42;19.60;89.60
15013;DHT22;7603;49.432;11.418;2023-04-29T13:25:09;19.70;90.20
15013;DHT22;7603;49.432;11.418;2023-04-29T13:27:36;19.80;90.20
15013;DHT22;7603;49.432;11.418;2023-04-29T13:30:02;19.80;90.00
15013;DHT22;7603;49.432;11.418;2023-04-29T13:32:28;19.90;90.40
15013;DHT22;7603;49.432;11.418;2023-04-29T13:34:53;20.00;89.20
15013;DHT22;7603;49.432;11.418;2023-04-29T13:37:19;20.00;89.70
15013;DHT22;7603;49.432;11.418;2023-04-29T13:39:44;19.60;85.70
15013;DHT22;7603;49.432;11.418;2023-04-29T13:42:10;19.40;89.00
15013;DHT22;7603;49.432;11.418;2023-04-29T13:44:36;19.30;90.80
15013;DHT22;7603;49.432;11.418;2023-04-29T13:47:02;19.30;91.40
15013;DHT22;7603;49.432;11.418;2023-04-29T13:49:28;19.20;92.20
15013;DHT22;7603;49.432;11.418;2023-04-29T13:51:54;19.20;92.60
15013;DHT22;7603;49.432;11.418;2023-04-29T13:54:20;19.20;92.70
15013;DHT22;7603;49.432;11.418;2023-04-29T13:56:48;19.20;92.40
15013;DHT22;7603;49.432;11.418;2023-04-29T13:59:14;19.30;92.00
15013;DHT22;7603;49.432;11.418;2023-04-29T14:01:40;19.40;91.90
15013;DHT22;7603;49.432;11.418;2023-04-29T14:04:06;19.50;91.30
15013;DHT22;7603;49.432;11.418;2023-04-29T14:06:32;19.50;91.60
15013;DHT22;7603;49.432;11.418;2023-04-29T14:08:58;19.30;91.80
15013;DHT22;7603;49.432;11.418;2023-04-29T14:11:24;19.20;92.20
15013;DHT22;7603;49.432;11.418;2023-04-29T14:13:50;19.20;92.90
15013;DHT22;7603;49.432;11.418;2023-04-29T14:16:16;19.10;93.20
15013;DHT22;7603;49.432;11.418;2023-04-29T14:18:41;19.10;93.20
15013;DHT22;7603;49.432;11.418;2023-04-29T14:21:07;19.10;93.10
15013;DHT22;7603;49.432;11.418;2023-04-29T14:23:33;19.00;93.30
15013;DHT22;7603;49.432;11.418;2023-04-29T14:25:58;18.90;93.50
15013;DHT22;7603;49.432;11.418;2023-04-29T14:28:24;18.80;93.60
15013;DHT22;7603;49.432;11.418;2023-04-29T14:30:49;18.70;93.80
15013;DHT22;7603;49.432;11.418;2023-04-29T14:33:15;18.70;93.70
15013;DHT22;7603;49.432;11.418;2023-04-29T14:35:41;18.70;93.90
15013;DHT22;7603;49.432;11.418;2023-04-29T14:38:06;18.70;94.00
15013;DHT22;7603;49.432;11.418;2023-04-29T14:40:32;18.70;94.10
15013;DHT22;7603;49.432;11.418;2023-04-29T14:42:57;18.70;93.30
15013;DHT22;7603;49.432;11.418;2023-04-29T14:45:23;18.60;93.60
15013;DHT22;7603;49.432;11.418;2023-04-29T14:47:48;18.40;93.70
15013;DHT22;7603;49.432;11.418;2023-04-29T14:50:14;18.20;93.80
15013;DHT22;7603;49.432;11.418;2023-04-29T14:52:40;18.10;94.10
15013;DHT22;7603;49.432;11.418;2023-04-29T14:55:06;17.80;94.60
15013;DHT22;7603;49.432;11.418;2023-04-29T14:57:33;17.70;95.00
15013;DHT22;7603;49.432;11.418;2023-04-29T14:59:58;17.60;95.50
15013;DHT22;7603;49.432;11.418;2023-04-29T15:02:24;17.60;95.40
15013;DHT22;7603;49.432;11.418;2023-04-29T15:04:49;17.50;95.80
15013;DHT22;7603;49.432;11.418;2023-04-29T15:07:15;17.30;96.00
15013;DHT22;7603;49.432;11.418;2023-04-29T15:09:41;17.10;96.20
15013;DHT22;7603;49.432;11.418;2023-04-29T15:12:07;16.90;96.70
15013;DHT22;7603;49.432;11.418;2023-04-29T15:14:33;16.70;97.20
15013;DHT22;7603;49.432;11.418;2023-04-29T15:16:59;16.50;97.70
15013;DHT22;7603;49.432;11.418;2023-04-29T15:19:25;16.30;98.30
15013;DHT22;7603;49.432;11.418;2023-04-29T15:21:51;16.10;98.90
15013;DHT22;7603;49.432;11.418;2023-04-29T15:24:17;16.20;99.10
15013;DHT22;7603;49.432;11.418;2023-04-29T15:26:43;16.10;99.40
15013;DHT22;7603;49.432;11.418;2023-04-29T15:29:09;16.10;99.90
15013;DHT22;7603;49.432;11.418;2023-04-29T15:31:36;16.00;99.90
15013;DHT22;7603;49.432;11.418;2023-04-29T15:34:01;16.00;99.90
15013;DHT22;7603;49.432;11.418;2023-04-29T15:36:29;16.00;99.90
15013;DHT22;7603;49.432;11.418;2023-04-29T15:38:55;16.10;99.90
15013;DHT22;7603;49.432;11.418;2023-04-29T15:41:21;16.30;99.70
15013;DHT22;7603;49.432;11.418;2023-04-29T15:43:47;16.30;99.40
15013;DHT22;7603;49.432;11.418;2023-04-29T15:46:12;16.40;99.10
15013;DHT22;7603;49.432;11.418;2023-04-29T15:48:38;16.60;99.10
15013;DHT22;7603;49.432;11.418;2023-04-29T15:51:04;16.60;98.30